Time;durP1;ratioP1;P1;durP2;ratioP2;P2;SDS_P1;SDS_P2;PMS_P1;PMS_P2;Temp;Humidity;BMP_temperature;BMP_pressure;BME280_temperature;BME280_humidity;BME280_pressure;Samples;Min_cycle;Max_cycle;Signal;HPM_P1;HPM_P2
2024/02/09 00:00:10;;;;;;;71.03;15.93;;;;;;;9.95;100.00;95970.75;4987557;28;20064;-62
2024/02/09 00:02:36;;;;;;;37.70;13.10;;;;;;;10.02;100.00;95969.63;4991192;28;20045;-62
2024/02/09 00:05:02;;;;;;;75.57;14.75;;;;;;;9.87;100.00;95963.19;4986948;28;20117;-63
2024/02/09 00:07:27;;;;;;;36.72;12.00;;;;;;;9.80;100.00;95952.16;4989340;28;20495;-60
2024/02/09 00:09:53;;;;;;;45.35;14.63;;;;;;;9.75;100.00;95947.16;4987206;28;20038;-61
2024/02/09 00:12:20;;;;;;;61.03;14.45;;;;;;;9.74;100.00;95942.00;4988444;28;20124;-61
2024/02/09 00:14:47;;;;;;;52.17;13.45;;;;;;;9.81;100.00;95937.44;4988260;28;20109;-61
2024/02/09 00:17:14;;;;;;;35.50;12.85;;;;;;;9.85;100.00;95920.88;4987257;28;20041;-59
2024/02/09 00:19:39;;;;;;;44.85;14.30;;;;;;;9.81;100.00;95919.28;4987168;28;20101;-62
2024/02/09 00:22:05;;;;;;;65.20;16.10;;;;;;;9.81;100.00;95919.28;4986004;28;20446;-59
2024/02/09 00:24:31;;;;;;;39.92;13.23;;;;;;;9.82;100.00;95916.63;4987317;28;20022;-60
2024/02/09 00:27:00;;;;;;;65.28;14.40;;;;;;;9.88;100.00;95918.19;4988549;28;20050;-61
2024/02/09 00:29:26;;;;;;;39.95;13.48;;;;;;;9.84;100.00;95922.59;4989472;28;20074;-63
2024/02/09 00:31:52;;;;;;;46.13;13.23;;;;;;;9.93;100.00;95918.00;4988250;28;20038;-61
2024/02/09 00:34:18;;;;;;;40.25;12.73;;;;;;;9.95;100.00;95918.81;4985363;28;20036;-62
2024/02/09 00:36:47;;;;;;;43.15;14.45;;;;;;;10.01;100.00;95924.66;4990714;28;20478;-60
2024/02/09 00:39:16;;;;;;;85.80;15.38;;;;;;;10.00;100.00;95916.91;4984142;28;20021;-62
2024/02/09 00:41:41;;;;;;;33.75;11.68;;;;;;;10.02;100.00;95926.34;4986702;28;20034;-61
2024/02/09 00:44:07;;;;;;;60.17;13.52;;;;;;;9.98;100.00;95918.72;4985766;28;20055;-59
2024/02/09 00:46:32;;;;;;;47.05;12.57;;;;;;;9.84;100.00;95922.59;4987091;28;20256;-59
2024/02/09 00:49:02;;;;;;;64.82;13.98;;;;;;;9.85;100.00;95915.69;4987046;28;20069;-61
2024/02/09 00:51:28;;;;;;;31.33;11.48;;;;;;;9.92;100.00;95919.78;4986912;28;20046;-61
2024/02/09 00:53:54;;;;;;;50.33;14.27;;;;;;;9.90;100.00;95917.22;4987012;28;20040;-61
2024/02/09 00:56:19;;;;;;;36.83;12.40;;;;;;;9.88;100.00;95923.38;4986281;28;20509;-59
2024/02/09 00:58:45;;;;;;;48.60;12.77;;;;;;;9.82;100.00;95918.38;4984796;28;20018;-60
2024/02/09 01:01:11;;;;;;;78.25;31.77;;;;;;;9.79;100.00;95916.72;4984419;28;20129;-60
2024/02/09 01:03:36;;;;;;;38.10;12.20;;;;;;;9.74;100.00;95910.84;4987074;28;20034;-62
2024/02/09 01:06:04;;;;;;;71.82;15.15;;;;;;;9.76;100.00;95909.91;4983786;28;20054;-62
2024/02/09 01:08:32;;;;;;;45.17;22.42;;;;;;;9.78;100.00;95909.84;4982711;28;20537;-61
2024/02/09 01:10:57;;;;;;;60.97;52.92;;;;;;;9.79;100.00;95898.56;4983653;28;20048;-61
2024/02/09 02:46:15;;;;;;;157.15;140.60;;;;;;;10.11;100.00;95799.66;4989143;28;20051;-62
2024/02/09 03:05:17;;;;;;;69.78;29.00;;;;;;;10.31;100.00;95780.72;4987396;28;20041;-59
2024/02/09 03:07:43;;;;;;;50.90;17.83;;;;;;;10.21;100.00;95780.22;4989091;28;20030;-60
2024/02/09 03:10:10;;;;;;;57.65;15.43;;;;;;;10.19;100.00;95781.19;4986576;28;20068;-61
2024/02/09 03:12:38;;;;;;;127.35;113.47;;;;;;;10.08;100.00;95766.84;4985997;28;20038;-62
2024/02/09 03:15:09;;;;;;;49.78;27.63;;;;;;;10.24;100.00;95761.94;4987384;28;20061;-58
2024/02/09 03:17:35;;;;;;;64.25;33.28;;;;;;;10.51;100.00;95763.56;4986009;28;20409;-59
2024/02/09 03:20:03;;;;;;;60.10;39.00;;;;;;;10.26;100.00;95757.53;4986429;28;20087;-61
2024/02/09 03:22:29;;;;;;;52.53;29.17;;;;;;;10.43;100.00;95761.22;4987875;28;20098;-61
2024/02/09 03:24:57;;;;;;;52.50;18.10;;;;;;;10.49;100.00;95771.41;4987574;28;20414;-62
2024/02/09 03:27:23;;;;;;;47.63;20.35;;;;;;;10.45;100.00;95769.84;4987395;28;20030;-61
2024/02/09 03:29:48;;;;;;;299.95;267.00;;;;;;;10.66;100.00;95772.53;4985728;28;20307;-61
2024/02/09 03:32:14;;;;;;;46.15;14.60;;;;;;;10.47;100.00;95778.41;4988789;28;20559;-61
2024/02/09 03:34:39;;;;;;;35.58;13.27;;;;;;;10.58;100.00;95771.97;4987893;28;20079;-59
2024/02/09 03:37:04;;;;;;;40.67;12.10;;;;;;;10.58;100.00;95769.38;4986154;28;20447;-59
2024/02/09 03:39:30;;;;;;;80.78;59.60;;;;;;;10.81;100.00;95781.47;4987372;28;20648;-59
2024/02/09 03:41:55;;;;;;;105.80;87.40;;;;;;;11.16;100.00;95783.53;4986135;28;20449;-60
2024/02/09 03:44:20;;;;;;;96.22;61.00;;;;;;;10.94;100.00;95781.81;4987558;28;20053;-62
2024/02/09 03:46:46;;;;;;;55.88;32.28;;;;;;;10.70;100.00;95786.22;4987889;28;20133;-61
2024/02/09 03:49:12;;;;;;;62.47;31.83;;;;;;;11.53;100.00;95784.59;4987005;28;20092;-61
2024/02/09 03:51:37;;;;;;;51.35;28.23;;;;;;;10.84;100.00;95793.50;4987152;28;20042;-62
2024/02/09 03:54:03;;;;;;;81.53;66.43;;;;;;;10.90;100.00;95796.69;4986109;28;20108;-62
2024/02/09 03:56:30;;;;;;;119.63;108.40;;;;;;;11.08;100.00;95791.66;4985278;28;20676;-62
2024/02/09 03:58:58;;;;;;;50.15;15.45;;;;;;;10.95;100.00;95796.50;4985572;28;20030;-62
2024/02/09 04:01:24;;;;;;;44.50;13.38;;;;;;;10.82;100.00;95790.94;4987350;28;20034;-62
2024/02/09 04:03:49;;;;;;;47.63;17.73;;;;;;;10.99;100.00;95792.84;4987951;28;20498;-62
2024/02/09 04:06:14;;;;;;;61.13;30.85;;;;;;;10.99;100.00;95784.22;4984961;28;20034;-62
2024/02/09 04:08:40;;;;;;;46.05;23.63;;;;;;;11.27;100.00;95791.75;4986541;28;20053;-60
2024/02/09 04:11:05;;;;;;;39.70;11.95;;;;;;;11.13;100.00;95794.06;4987206;28;20041;-61
2024/02/09 04:13:30;;;;;;;158.35;141.18;;;;;;;10.78;100.00;95790.22;4985187;28;20030;-62
2024/02/09 04:16:00;;;;;;;62.47;54.55;;;;;;;10.74;100.00;95788.66;4986034;28;20049;-63
2024/02/09 04:18:28;;;;;;;36.75;11.20;;;;;;;11.20;100.00;95785.94;4987372;28;20473;-60
2024/02/09 04:20:54;;;;;;;50.15;23.50;;;;;;;11.01;100.00;95785.00;4984822;28;20206;-62
2024/02/09 04:23:20;;;;;;;49.90;11.75;;;;;;;11.20;100.00;95787.69;4986507;28;20072;-60
2024/02/09 04:25:45;;;;;;;47.28;11.50;;;;;;;10.83;100.00;95784.84;4987302;28;20034;-61
2024/02/09 04:28:12;;;;;;;51.80;19.75;;;;;;;10.98;100.00;95780.78;4984756;28;20422;-60
2024/02/09 04:30:38;;;;;;;40.08;14.43;;;;;;;10.77;100.00;95785.09;4984944;28;20394;-59
2024/02/09 04:33:03;;;;;;;38.33;11.45;;;;;;;11.08;100.00;95799.47;4985882;28;20033;-63
2024/02/09 04:35:28;;;;;;;43.65;14.35;;;;;;;10.87;100.00;95776.00;4985102;28;20149;-60
2024/02/09 04:37:54;;;;;;;44.25;11.20;;;;;;;11.19;100.00;95783.41;4986218;28;20449;-61
2024/02/09 04:40:19;;;;;;;70.22;22.48;;;;;;;11.13;100.00;95779.28;4984844;28;20030;-60
2024/02/09 04:42:46;;;;;;;37.40;10.40;;;;;;;10.92;100.00;95776.66;4983855;28;20108;-61
2024/02/09 04:45:11;;;;;;;53.63;12.35;;;;;;;10.91;100.00;95777.56;4984669;28;20482;-59
2024/02/09 04:47:36;;;;;;;44.67;11.38;;;;;;;10.79;100.00;95771.13;4985981;28;20034;-60
2024/02/09 04:50:04;;;;;;;31.80;10.60;;;;;;;10.88;100.00;95763.84;4985984;28;20282;-60
2024/02/09 04:52:29;;;;;;;39.17;11.30;;;;;;;10.71;100.00;95761.91;4983419;28;20057;-61
2024/02/09 04:54:54;;;;;;;48.75;12.23;;;;;;;10.53;100.00;95759.13;4987489;28;20023;-62
2024/02/09 04:57:21;;;;;;;45.75;12.40;;;;;;;10.55;100.00;95758.16;4985402;28;20086;-62
2024/02/09 04:59:47;;;;;;;46.92;13.05;;;;;;;10.57;100.00;95746.91;4987838;28;20033;-62
2024/02/09 05:02:12;;;;;;;64.90;13.02;;;;;;;10.37;100.00;95749.31;4984537;28;20034;-60
2024/02/09 05:04:37;;;;;;;42.10;12.95;;;;;;;10.53;100.00;95744.41;4987462;28;20019;-59
2024/02/09 05:07:04;;;;;;;36.50;14.00;;;;;;;10.62;100.00;95740.56;4982853;28;20049;-61
2024/02/09 05:09:30;;;;;;;45.50;13.05;;;;;;;10.56;100.00;95738.25;4983043;28;20250;-62
2024/02/09 05:11:56;;;;;;;44.00;14.30;;;;;;;10.37;100.00;95735.47;4984069;28;20054;-61
2024/02/09 05:14:22;;;;;;;63.03;20.20;;;;;;;10.33;100.00;95739.09;4984316;28;20068;-63
2024/02/09 05:16:47;;;;;;;44.60;14.77;;;;;;;10.28;100.00;95740.13;4985528;28;20030;-61
2024/02/09 05:19:12;;;;;;;46.28;14.57;;;;;;;10.39;100.00;95742.31;4984128;28;20117;-61
2024/02/09 05:21:39;;;;;;;49.80;15.55;;;;;;;10.41;100.00;95744.84;4985049;28;20050;-60
2024/02/09 05:24:05;;;;;;;42.80;12.77;;;;;;;10.39;100.00;95747.50;4985771;28;20109;-59
2024/02/09 05:26:31;;;;;;;40.30;13.75;;;;;;;10.38;100.00;95747.56;4984453;28;20414;-59
2024/02/09 05:28:56;;;;;;;65.07;20.70;;;;;;;10.43;100.00;95743.03;4984315;28;20478;-60
2024/02/09 05:31:25;;;;;;;49.30;15.73;;;;;;;10.37;100.00;95748.47;4983254;28;20037;-60
2024/02/09 05:33:51;;;;;;;39.90;14.15;;;;;;;10.41;100.00;95739.66;4984971;28;20022;-61
2024/02/09 05:36:27;;;;;;;60.88;16.98;;;;;;;10.38;100.00;95740.63;4982451;28;20480;-60
2024/02/09 05:38:54;;;;;;;46.63;27.30;;;;;;;10.48;100.00;95746.34;4985343;28;20034;-60
2024/02/09 05:41:23;;;;;;;95.40;64.82;;;;;;;10.34;100.00;95748.59;4982493;28;20592;-60
2024/02/09 05:43:54;;;;;;;47.42;20.00;;;;;;;10.23;100.00;95751.59;4985178;28;20383;-59
2024/02/09 05:46:20;;;;;;;53.67;20.30;;;;;;;10.50;100.00;95741.09;4986613;28;20050;-61
2024/02/09 05:48:47;;;;;;;51.53;16.88;;;;;;;10.41;100.00;95739.66;4989894;28;20433;-59
2024/02/09 05:51:15;;;;;;;44.28;14.63;;;;;;;10.42;100.00;95736.13;4987783;28;20124;-59
2024/02/09 05:53:41;;;;;;;51.13;21.75;;;;;;;10.40;100.00;95737.97;4988197;28;20101;-60
2024/02/09 05:56:25;;;;;;;40.13;17.10;;;;;;;10.35;100.00;95735.53;4986582;28;20030;-60
2024/02/09 05:58:52;;;;;;;45.90;17.42;;;;;;;10.50;100.00;95733.28;4989986;28;20053;-60
2024/02/09 06:01:20;;;;;;;51.33;13.07;;;;;;;10.45;100.00;95735.19;4994453;28;20042;-61
2024/02/09 06:03:46;;;;;;;35.78;14.25;;;;;;;10.55;100.00;95724.38;4986150;28;20044;-61
2024/02/09 06:06:12;;;;;;;64.10;26.90;;;;;;;10.44;100.00;95723.97;4985961;28;20037;-58
2024/02/09 06:08:38;;;;;;;36.40;12.65;;;;;;;10.61;100.00;95712.91;4988578;28;20046;-60
2024/02/09 06:11:06;;;;;;;43.53;28.65;;;;;;;10.53;100.00;95714.97;4986865;28;20533;-58
2024/02/09 06:13:32;;;;;;;54.25;14.32;;;;;;;10.66;100.00;95713.56;4986327;28;20334;-60
2024/02/09 06:16:00;;;;;;;36.28;14.20;;;;;;;10.88;100.00;95717.06;4989423;28;20200;-61
2024/02/09 06:18:27;;;;;;;41.80;14.18;;;;;;;11.01;100.00;95718.22;4986336;28;20308;-59
2024/02/09 06:20:53;;;;;;;44.60;14.02;;;;;;;10.71;100.00;95715.13;4986109;28;20053;-61
2024/02/09 06:23:25;;;;;;;55.25;14.52;;;;;;;10.84;100.00;95718.09;4987734;28;20659;-60
2024/02/09 06:25:51;;;;;;;;;;;;;;;10.72;100.00;95720.28;4988720;28;20477;-58
2024/02/09 06:28:18;;;;;;;71.60;31.05;;;;;;;10.70;100.00;95722.09;4987073;28;20424;-60
2024/02/09 06:30:47;;;;;;;38.20;15.20;;;;;;;10.78;100.00;95722.63;4985373;28;20046;-59
2024/02/09 06:33:19;;;;;;;82.75;69.25;;;;;;;10.76;100.00;95719.25;4988062;28;20066;-60
2024/02/09 06:35:44;;;;;;;32.30;12.60;;;;;;;10.71;100.00;95718.59;4986945;28;20065;-58
2024/02/09 06:38:11;;;;;;;76.63;49.38;;;;;;;10.55;100.00;95718.38;4985217;28;20300;-59
2024/02/09 06:40:38;;;;;;;41.92;24.60;;;;;;;10.53;100.00;95726.22;4986148;28;20034;-59
2024/02/09 06:43:03;;;;;;;122.75;88.63;;;;;;;10.42;100.00;95712.75;4987747;28;20173;-57
2024/02/09 06:45:29;;;;;;;123.65;76.28;;;;;;;10.33;100.00;95726.09;4985282;28;20592;-57
2024/02/09 06:47:54;;;;;;;105.57;94.82;;;;;;;10.24;100.00;95725.56;4987741;28;20026;-56
2024/02/09 06:50:21;;;;;;;96.68;63.38;;;;;;;10.12;100.00;95723.44;4986694;28;20038;-60
2024/02/09 06:52:48;;;;;;;144.43;129.93;;;;;;;10.15;100.00;95728.50;4987267;28;20022;-57
2024/02/09 06:55:14;;;;;;;49.15;23.58;;;;;;;10.13;100.00;95731.16;4985474;28;20584;-59
2024/02/09 06:57:45;;;;;;;45.72;20.08;;;;;;;10.20;100.00;95736.97;4986823;28;20026;-57
2024/02/09 07:00:13;;;;;;;42.97;17.83;;;;;;;10.26;100.00;95731.56;4985368;28;20108;-59
2024/02/09 07:02:39;;;;;;;37.72;17.85;;;;;;;10.36;100.00;95741.59;4986268;28;20038;-59
2024/02/09 07:05:08;;;;;;;81.70;51.20;;;;;;;10.41;100.00;95737.91;4985099;28;20030;-58
2024/02/09 07:07:38;;;;;;;38.95;16.90;;;;;;;10.44;100.00;95739.56;4986401;28;20026;-58
2024/02/09 07:10:04;;;;;;;55.25;36.00;;;;;;;10.40;100.00;95751.78;4989720;28;20305;-59
2024/02/09 07:12:30;;;;;;;324.10;293.55;;;;;;;10.45;100.00;95741.25;4984848;28;20042;-58
2024/02/09 07:14:55;;;;;;;38.80;18.58;;;;;;;10.37;100.00;95743.28;4985916;28;20114;-58
2024/02/09 07:17:23;;;;;;;48.95;12.27;;;;;;;10.51;100.00;95742.78;4985117;28;20065;-58
2024/02/09 07:19:48;;;;;;;42.03;11.88;;;;;;;10.65;100.00;95742.25;4986063;28;20030;-59
2024/02/09 07:22:14;;;;;;;53.40;22.48;;;;;;;10.70;100.00;95750.69;4985611;28;20094;-59
2024/02/09 07:24:39;;;;;;;101.10;80.63;;;;;;;11.03;100.00;95751.97;4994993;28;20053;-58
2024/02/09 07:27:04;;;;;;;97.03;86.25;;;;;;;11.06;100.00;95757.91;4987636;28;20046;-58
2024/02/09 07:29:31;;;;;;;60.28;26.05;;;;;;;11.15;100.00;95755.81;4986277;28;20057;-59
2024/02/09 07:31:56;;;;;;;45.58;17.13;;;;;;;11.09;100.00;95756.91;4986563;28;20037;-59
2024/02/09 07:34:22;;;;;;;137.05;114.50;;;;;;;10.91;100.00;95754.16;4983256;28;20034;-59
2024/02/09 07:36:47;;;;;;;148.57;132.63;;;;;;;10.97;100.00;95755.69;4986429;28;20877;-58
2024/02/09 07:39:13;;;;;;;62.92;31.67;;;;;;;11.41;100.00;95746.06;4985959;28;20036;-59
2024/02/09 07:41:38;;;;;;;42.25;26.35;;;;;;;11.35;100.00;95757.59;4985757;28;20037;-59
2024/02/09 07:44:04;;;;;;;37.08;11.20;;;;;;;11.46;100.00;95762.34;4986121;28;20458;-60
2024/02/09 07:46:30;;;;;;;60.83;22.20;;;;;;;11.45;100.00;95751.09;4985215;28;20615;-59
2024/02/09 07:48:56;;;;;;;33.03;11.55;;;;;;;11.43;100.00;95759.88;4986736;28;20305;-58
2024/02/09 07:51:21;;;;;;;49.65;11.60;;;;;;;11.56;100.00;95765.38;4985563;28;20422;-59
2024/02/09 07:53:52;;;;;;;46.17;12.38;;;;;;;11.49;100.00;95754.41;4986940;28;20026;-57
2024/02/09 07:56:24;;;;;;;44.80;24.65;;;;;;;11.65;100.00;95753.75;4984569;28;20030;-59
2024/02/09 07:58:53;;;;;;;;;;;;;;;11.49;100.00;95771.75;4985303;28;20390;-59
2024/02/09 08:01:21;;;;;;;58.78;32.75;;;;;;;11.29;100.00;95760.47;4984669;28;19971;-59
2024/02/09 08:03:53;;;;;;;115.38;100.25;;;;;;;11.50;100.00;95752.66;4984489;28;20038;-59
2024/02/09 08:06:19;;;;;;;52.42;20.45;;;;;;;11.74;100.00;95766.34;4981614;28;20049;-59
2024/02/09 08:08:45;;;;;;;33.72;10.65;;;;;;;11.30;100.00;95763.00;4986546;28;20632;-60
2024/02/09 08:11:10;;;;;;;61.53;45.65;;;;;;;11.51;100.00;95759.53;4985169;28;20121;-58
2024/02/09 08:13:39;;;;;;;55.20;19.05;;;;;;;11.43;100.00;95750.28;4983940;28;20077;-59
2024/02/09 08:16:05;;;;;;;31.67;13.60;;;;;;;11.56;100.00;95760.19;4986165;28;20131;-63
2024/02/09 08:18:31;;;;;;;49.58;11.18;;;;;;;11.25;100.00;95762.31;4984178;28;20462;-61
2024/02/09 08:20:59;;;;;;;34.72;9.80;;;;;;;11.29;100.00;95756.09;4984826;28;20449;-62
2024/02/09 08:23:25;;;;;;;51.85;21.10;;;;;;;11.26;100.00;95748.44;4984037;28;20026;-60
2024/02/09 08:25:50;;;;;;;88.70;68.90;;;;;;;11.65;100.00;95761.56;4986003;28;20141;-59
2024/02/09 08:28:16;;;;;;;32.63;10.15;;;;;;;11.89;100.00;95761.38;4984962;28;20466;-60
2024/02/09 08:30:41;;;;;;;41.88;25.70;;;;;;;11.71;100.00;95766.47;4983844;28;20233;-57
2024/02/09 08:33:07;;;;;;;63.70;38.28;;;;;;;11.53;100.00;95760.31;4984612;28;20057;-56
2024/02/09 08:35:32;;;;;;;62.65;13.90;;;;;;;11.19;100.00;95773.00;4983221;28;20035;-57
2024/02/09 08:37:57;;;;;;;61.95;55.33;;;;;;;11.72;100.00;95758.59;4985269;28;20018;-58
2024/02/09 08:40:25;;;;;;;62.47;17.20;;;;;;;11.54;100.00;95744.63;4982619;28;20412;-58
2024/02/09 08:42:51;;;;;;;44.42;23.95;;;;;;;11.46;100.00;95757.13;4983740;28;20042;-59
2024/02/09 08:45:16;;;;;;;39.10;17.05;;;;;;;11.29;100.00;95753.47;4983839;28;20027;-59
2024/02/09 08:47:41;;;;;;;48.80;17.70;;;;;;;11.57;100.00;95747.09;4984773;28;20286;-57
2024/02/09 08:50:07;;;;;;;43.55;19.05;;;;;;;11.48;100.00;95746.66;4986013;28;20357;-58
2024/02/09 08:52:32;;;;;;;74.57;45.38;;;;;;;11.25;100.00;95745.88;4985042;28;20482;-59
2024/02/09 08:54:58;;;;;;;38.40;10.95;;;;;;;11.48;100.00;95738.84;4984632;28;20124;-59
2024/02/09 08:57:23;;;;;;;43.63;14.18;;;;;;;11.74;100.00;95744.66;4983234;28;20030;-57
2024/02/09 08:59:49;;;;;;;34.63;11.48;;;;;;;11.83;100.00;95737.31;4984056;28;20018;-59
2024/02/09 09:02:14;;;;;;;57.40;31.77;;;;;;;11.73;100.00;95741.22;4983202;28;20042;-57
2024/02/09 09:04:40;;;;;;;37.80;10.40;;;;;;;12.09;100.00;95737.06;4985919;28;20081;-58
2024/02/09 09:07:05;;;;;;;30.58;10.23;;;;;;;11.81;100.00;95741.72;4984563;28;20622;-61
2024/02/09 09:09:30;;;;;;;40.03;10.10;;;;;;;11.69;100.00;95732.69;4982520;28;20615;-61
2024/02/09 09:11:56;;;;;;;30.08;12.63;;;;;;;12.35;100.00;95733.25;4982893;28;20039;-61
2024/02/09 09:14:21;;;;;;;38.83;9.65;;;;;;;11.66;100.00;95732.00;4983253;28;20034;-58
2024/02/09 09:16:47;;;;;;;31.83;9.10;;;;;;;11.71;100.00;95724.81;4983848;28;20575;-61
2024/02/09 09:19:14;;;;;;;46.00;11.20;;;;;;;11.72;100.00;95729.09;4986975;28;20391;-57
2024/02/09 09:21:41;;;;;;;36.88;24.15;;;;;;;11.76;100.00;95730.66;4989233;28;20370;-58
2024/02/09 09:24:09;;;;;;;29.63;9.90;;;;;;;12.39;100.00;95736.56;4992321;28;20038;-59
2024/02/09 09:26:35;;;;;;;47.05;18.48;;;;;;;12.11;100.00;95728.25;4991101;28;20062;-60
2024/02/09 09:29:00;;;;;;;57.00;28.70;;;;;;;12.05;100.00;95731.16;4993780;28;20069;-58
2024/02/09 09:31:29;;;;;;;34.10;11.27;;;;;;;12.00;100.00;95727.88;4992510;28;20057;-60
2024/02/09 09:33:57;;;;;;;27.42;9.77;;;;;;;12.25;100.00;95726.75;4991244;28;20500;-58
2024/02/09 09:36:23;;;;;;;40.00;23.35;;;;;;;12.08;100.00;95725.81;4991954;28;20042;-58
2024/02/09 09:38:48;;;;;;;21.60;10.05;;;;;;;12.35;100.00;95719.38;4994163;28;20128;-58
2024/02/09 09:41:15;;;;;;;32.35;16.95;;;;;;;11.86;100.00;95720.69;4992449;28;20038;-58
2024/02/09 09:43:41;;;;;;;120.03;106.38;;;;;;;11.91;100.00;95723.94;4990170;28;21547;-58
2024/02/09 09:46:11;;;;;;;65.97;59.13;;;;;;;12.26;100.00;95723.28;4991338;28;20034;-60
2024/02/09 09:48:38;;;;;;;69.20;40.28;;;;;;;12.14;100.00;95729.03;4991153;28;20034;-60
2024/02/09 09:51:06;;;;;;;81.90;73.38;;;;;;;12.03;100.00;95729.50;4991743;28;20073;-59
2024/02/09 09:53:45;;;;;;;48.80;15.85;;;;;;;12.27;100.00;95719.75;4990448;28;20520;-59
2024/02/09 09:56:12;;;;;;;48.85;35.25;;;;;;;12.26;100.00;95720.66;4991526;28;20537;-58
2024/02/09 09:58:38;;;;;;;52.42;20.67;;;;;;;12.19;100.00;95727.06;4992387;28;20121;-58
2024/02/09 10:01:07;;;;;;;43.28;15.75;;;;;;;11.78;100.00;95713.22;4991641;28;20120;-57
2024/02/09 10:03:33;;;;;;;95.38;83.63;;;;;;;10.70;100.00;95729.91;4988381;28;20049;-59
2024/02/09 10:05:59;;;;;;;70.78;63.97;;;;;;;10.63;100.00;95728.44;4990464;28;20152;-59
2024/02/09 10:08:28;;;;;;;43.65;20.55;;;;;;;10.57;100.00;95739.91;4991102;28;20055;-59
2024/02/09 10:10:55;;;;;;;158.18;143.07;;;;;;;10.61;100.00;95741.50;4991976;28;20033;-58
2024/02/09 10:13:25;;;;;;;34.85;12.77;;;;;;;10.85;100.00;95740.56;4992372;28;20022;-61
2024/02/09 10:15:55;;;;;;;225.90;205.65;;;;;;;10.49;100.00;95735.03;4991254;28;20050;-60
2024/02/09 10:18:23;;;;;;;40.63;14.43;;;;;;;10.75;100.00;95743.56;4992514;28;20068;-61
2024/02/09 10:20:50;;;;;;;66.05;50.88;;;;;;;10.52;100.00;95740.13;4991591;28;20372;-61
2024/02/09 10:23:16;;;;;;;62.70;56.10;;;;;;;10.46;100.00;95745.53;4992282;28;20029;-61
2024/02/09 10:25:43;;;;;;;57.42;22.60;;;;;;;10.68;100.00;95740.34;4989396;28;20329;-60
2024/02/09 10:28:11;;;;;;;33.55;15.90;;;;;;;10.86;100.00;95734.47;4991181;28;20021;-61
2024/02/09 10:30:36;;;;;;;47.97;9.50;;;;;;;10.97;100.00;95734.88;4990551;28;20034;-62
2024/02/09 10:33:02;;;;;;;39.63;16.45;;;;;;;11.55;100.00;95733.28;4989350;28;20026;-58
2024/02/09 10:35:28;;;;;;;165.27;148.57;;;;;;;11.64;100.00;95718.19;4989395;28;20251;-59
2024/02/09 10:37:57;;;;;;;28.48;17.23;;;;;;;12.02;100.00;95707.81;4992017;28;20266;-59
2024/02/09 10:40:25;;;;;;;45.03;27.73;;;;;;;12.33;100.00;95703.81;4989064;28;20603;-59
2024/02/09 10:42:52;;;;;;;49.08;39.15;;;;;;;12.08;100.00;95693.69;4991901;28;20026;-57
2024/02/09 10:45:18;;;;;;;49.60;36.92;;;;;;;12.24;100.00;95699.03;4990650;28;20036;-57
2024/02/09 10:47:46;;;;;;;56.03;12.85;;;;;;;12.61;100.00;95696.44;4989323;28;20485;-58
2024/02/09 10:50:14;;;;;;;29.30;10.65;;;;;;;12.59;100.00;95687.84;4989508;28;20026;-57
2024/02/09 10:52:50;;;;;;;43.80;10.60;;;;;;;13.10;100.00;95681.91;4989353;28;20025;-59
2024/02/09 10:55:22;;;;;;;30.67;13.30;;;;;;;12.95;100.00;95683.50;4991185;28;20496;-60
2024/02/09 10:57:50;;;;;;;;;;;;;;;13.07;100.00;95675.03;4991129;28;20026;-59
2024/02/09 11:00:17;;;;;;;27.73;18.70;;;;;;;14.00;100.00;95676.41;4988056;28;20376;-58
2024/02/09 11:02:43;;;;;;;40.85;19.88;;;;;;;14.09;100.00;95665.44;4990510;28;20152;-59
2024/02/09 11:05:11;;;;;;;39.38;20.25;;;;;;;13.89;100.00;95656.91;4989779;28;20126;-60
2024/02/09 11:07:39;;;;;;;131.60;114.07;;;;;;;13.86;100.00;95657.09;4989968;28;20091;-59
2024/02/09 11:10:07;;;;;;;36.08;24.88;;;;;;;13.83;100.00;95659.88;4991651;28;20620;-59
2024/02/09 11:12:32;;;;;;;52.40;11.20;;;;;;;14.13;100.00;95651.28;4989017;28;20137;-59
2024/02/09 11:14:57;;;;;;;26.20;9.50;;;;;;;14.57;100.00;95638.41;4990171;28;20041;-58
2024/02/09 11:17:28;;;;;;;19.52;10.27;;;;;;;14.43;100.00;95647.03;4990850;28;20469;-57
2024/02/09 11:19:53;;;;;;;29.40;14.18;;;;;;;14.40;100.00;95642.00;4989751;28;20322;-58
2024/02/09 11:22:18;;;;;;;61.28;51.58;;;;;;;14.06;100.00;95634.25;4989063;28;20575;-60
2024/02/09 11:24:47;;;;;;;43.58;20.52;;;;;;;14.15;100.00;95627.69;4988569;28;20054;-57
2024/02/09 11:27:13;;;;;;;61.50;49.60;;;;;;;14.29;100.00;95630.34;4988148;28;20158;-58
2024/02/09 11:29:38;;;;;;;43.30;14.05;;;;;;;14.15;100.00;95635.53;4989517;28;20033;-57
2024/02/09 11:32:05;;;;;;;48.95;35.63;;;;;;;13.85;100.00;95621.44;4989423;28;20033;-59
2024/02/09 11:34:34;;;;;;;28.70;17.95;;;;;;;13.79;100.00;95614.78;4990410;28;20042;-58
2024/02/09 11:37:00;;;;;;;31.48;24.27;;;;;;;13.88;100.00;95620.44;4989553;28;20343;-58
2024/02/09 11:39:33;;;;;;;66.78;51.70;;;;;;;13.89;100.00;95615.09;4989868;28;20030;-59
2024/02/09 11:42:00;;;;;;;74.13;67.32;;;;;;;14.12;100.00;95617.38;4989359;28;20069;-58
2024/02/09 11:44:25;;;;;;;26.08;14.77;;;;;;;14.69;100.00;95611.53;4989335;28;20285;-59
2024/02/09 11:46:52;;;;;;;31.40;27.63;;;;;;;14.54;100.00;95613.28;4990003;28;20049;-59
2024/02/09 11:49:19;;;;;;;36.20;25.42;;;;;;;14.27;100.00;95610.47;4988927;28;20466;-58
2024/02/09 11:51:45;;;;;;;67.95;31.80;;;;;;;14.32;100.00;95600.56;4986654;28;20038;-60
2024/02/09 11:54:11;;;;;;;30.20;13.32;;;;;;;14.55;100.00;95604.50;4989961;28;20014;-59
2024/02/09 11:56:39;;;;;;;56.80;32.88;;;;;;;14.77;100.00;95598.03;4987581;28;20050;-59
2024/02/09 11:59:04;;;;;;;62.38;52.10;;;;;;;14.15;100.00;95607.59;4989287;28;20066;-58
2024/02/09 12:01:30;;;;;;;25.90;18.70;;;;;;;14.52;100.00;95603.84;4986883;28;20069;-57
2024/02/09 12:03:56;;;;;;;33.13;18.70;;;;;;;14.57;100.00;95607.88;4988436;28;20383;-59
2024/02/09 12:06:22;;;;;;;51.40;28.27;;;;;;;14.73;100.00;95599.13;4996661;28;20103;-57
2024/02/09 12:08:52;;;;;;;52.40;21.42;;;;;;;14.54;100.00;95597.56;4988415;28;20535;-57
2024/02/09 12:11:20;;;;;;;38.58;24.10;;;;;;;14.29;100.00;95616.44;4989329;28;20564;-61
2024/02/09 12:13:49;;;;;;;195.30;176.25;;;;;;;14.32;100.00;95597.97;4989755;28;20053;-60
2024/02/09 12:16:16;;;;;;;64.43;57.95;;;;;;;14.47;100.00;95600.66;4991217;28;20171;-57
2024/02/09 12:18:46;;;;;;;69.90;28.05;;;;;;;14.44;100.00;95602.50;4986818;28;20023;-60
2024/02/09 12:21:13;;;;;;;81.97;73.65;;;;;;;14.76;100.00;95603.31;4987871;28;20030;-61
2024/02/09 12:23:38;;;;;;;322.30;289.23;;;;;;;14.73;100.00;95600.91;4985175;28;20468;-59
2024/02/09 12:26:06;;;;;;;100.40;87.07;;;;;;;14.95;100.00;95601.34;4987293;28;20699;-58
2024/02/09 12:28:38;;;;;;;26.70;22.85;;;;;;;14.61;100.00;95597.22;4990117;28;20076;-58
2024/02/09 12:31:07;;;;;;;47.53;38.03;;;;;;;14.59;100.00;95599.94;4987039;28;20026;-60
2024/02/09 12:33:40;;;;;;;94.70;85.15;;;;;;;14.70;100.00;95589.69;4986930;28;20041;-58
2024/02/09 12:36:07;;;;;;;32.17;19.75;;;;;;;15.27;100.00;95597.72;4988129;28;20058;-59
2024/02/09 12:38:33;;;;;;;35.75;25.75;;;;;;;15.39;100.00;95590.03;4985931;28;20412;-61
2024/02/09 12:40:58;;;;;;;62.88;56.22;;;;;;;15.61;100.00;95586.94;4989378;28;20031;-58
2024/02/09 12:43:24;;;;;;;43.13;33.78;;;;;;;15.81;100.00;95577.00;4987631;28;20739;-58
2024/02/09 12:45:52;;;;;;;178.18;125.70;;;;;;;15.70;100.00;95585.53;4986807;28;20065;-60
2024/02/09 12:48:20;;;;;;;32.35;23.67;;;;;;;16.06;100.00;95588.56;4989489;28;20089;-57
2024/02/09 12:50:46;;;;;;;69.28;45.83;;;;;;;15.70;100.00;95580.31;4985517;28;20689;-59
2024/02/09 12:53:14;;;;;;;33.63;23.70;;;;;;;16.19;100.00;95589.47;4989176;28;20026;-60
2024/02/09 12:55:40;;;;;;;44.08;12.68;;;;;;;16.29;100.00;95575.75;4987182;28;20074;-58